Etusivu
METAR-TAF:

METAR-TAF

Lentoasemat :

Aupaluk, Quebec, Kanada

Leveyspiiri: 59-17-48N, Pituuspiiri: 069-35-59W, korkeus merenpinnasta: 35 m

Tämänhetkinen sää

Tämä raportti tehtiin 12 tuntia ja 28 minuuttia sitten, kello 22.00 UTC
Tuuli 11 kn lännestä/luoteesta
Lämpötila -9°C
Kosteus 92%
Ilmanpaine 998 hPa
Näkyvyys: 24.1 km
Pilvistä 2300 ft:n korkeudessa
heikkoa lumisadetta

METAR: CYLA 052200Z 30011KT 15SM -SN OVC023 M09/M10 A2948 RMK SC8 SNW CVR/ MUCH LOOSE LAST STFD OBS/NEXT 061300UTC SLP988

Aika: 05:28 (10:28 UTC)


TAF: puuttuu

Säähavainnot ja -ennusteet yli 4000 lentoasemalta (METAR- ja TAF-raportit).

Käytössä olevat sääasemat on merkitty karttaan keltaisilla ja punaisilla pisteillä.

Aseta hiiri pisteen päälle nähdäksesi sääaseman nimen.

Klikkaa sitten nähdäksesi säähavainnot ja -ennusteet.

Kartan vaihtaminen: klikkaa mustalla rastilla varustettuja vihreitä pisteitä, niin voit zoomata sisään; viivalla varustettua vihreää pistettä, niin voit zoomata ulos tai vihreitä nuolia, niin pääset viereisille kartoille.


METAR-TAF: